»·PEaware :: PHXA24 KSNA-KPHX

PHXA24 :: KSNA-KPHX

FLIGHT INFORMATION

Flight Status: Arrived
Operator: Unknown
More flights by this operator :: More flights under this callsign
Pilot: Andrew W. (18069)
Aircraft: Unknown
(VIPJ)
More flights by this aircraft type
Origin: KSNA John Wayne-Orange Co
United States
Destination: KPHX Phoenix Sky Harbor Intl
United States
More flights between these airports :: More routes between these airports
Route: +MUSEL8 TRM V64 BLH HYDRR1
File this flight plan on PilotEdge
Remarks:
Altitude:
(Current/Filed)
25,000ft
Speed:
(Current/Filed)
450kts
Departed: 26-Mar-20 09:11 AM
Arrived: 26-Mar-20 10:11 AM
Distance/Time
Traveled:
293nm/1:00
Distance/Time
To Go:
Arrived

Flight Plot

Page will automatically refresh every two minutes.

Flight plan parsing failed; only flown route is shown


Map Options




Map Legend


Flown Route
Filed Route
Departure Airport
Arrival Airport
Navaid (VOR, NDB)
Fix

Horizontal Profiles

Position Reports

Time Latitude Longitude Heading Altitude Ground
Speed
26-Mar-20 08:56 33.671771 -117.866914 208 60ft 0kts
26-Mar-20 08:57 33.671771 -117.866914 208 60ft 0kts
26-Mar-20 08:58 33.671771 -117.866914 208 60ft 0kts
26-Mar-20 08:59 33.671771 -117.866914 208 60ft 0kts
26-Mar-20 09:00 33.671771 -117.866914 208 60ft 0kts
26-Mar-20 09:01 33.671771 -117.866914 208 60ft 0kts
26-Mar-20 09:02 33.671771 -117.866914 208 60ft 0kts
26-Mar-20 09:03 33.671771 -117.866914 208 60ft 0kts
26-Mar-20 09:04 33.671771 -117.866914 208 60ft 0kts
26-Mar-20 09:05 33.672631 -117.867784 32 60ft 8kts
26-Mar-20 09:06 33.675197 -117.865782 27 60ft 13kts
26-Mar-20 09:07 33.679274 -117.863200 27 60ft 17kts
26-Mar-20 09:08 33.681161 -117.864223 298 60ft 3kts
26-Mar-20 09:09 33.681177 -117.864259 298 60ft 1kts
26-Mar-20 09:10 33.678260 -117.867210 207 60ft 89kts
26-Mar-20 09:11 33.641158 -117.888413 198 2604ft 200kts
26-Mar-20 09:12 33.577126 -117.913506 194 5261ft 266kts
26-Mar-20 09:13 33.539627 -117.853039 81 7733ft 277kts
26-Mar-20 09:14 33.551396 -117.761654 81 10221ft 281kts
26-Mar-20 09:15 33.563895 -117.664816 80 13571ft 302kts
26-Mar-20 09:16 33.572252 -117.560858 86 16608ft 324kts
26-Mar-20 09:17 33.577169 -117.451882 86 19609ft 332kts
26-Mar-20 09:18 33.582023 -117.342064 87 22419ft 335kts
26-Mar-20 09:19 33.587218 -117.222037 87 23270ft 388kts
26-Mar-20 09:20 33.593035 -117.084309 87 23257ft 425kts
26-Mar-20 09:21 33.598886 -116.941951 87 23255ft 428kts
26-Mar-20 09:22 33.604588 -116.799200 87 23255ft 430kts
26-Mar-20 09:23 33.610168 -116.655339 87 23255ft 431kts
26-Mar-20 09:24 33.615547 -116.512409 87 23255ft 432kts
26-Mar-20 09:25 33.620758 -116.369520 87 24205ft 424kts
26-Mar-20 09:26 33.625678 -116.230331 87 25253ft 426kts
26-Mar-20 09:27 33.626835 -116.086823 91 25245ft 432kts
26-Mar-20 09:28 33.624191 -115.944769 91 25250ft 421kts
26-Mar-20 09:29 33.621466 -115.805450 91 25251ft 415kts
26-Mar-20 09:30 33.618605 -115.667088 91 25257ft 423kts
26-Mar-20 09:31 33.615463 -115.523066 91 25255ft 438kts
26-Mar-20 09:32 33.612072 -115.375543 91 25254ft 444kts
26-Mar-20 09:33 33.608487 -115.227252 91 25250ft 444kts
26-Mar-20 09:34 33.604755 -115.080175 91 25251ft 439kts
26-Mar-20 09:35 33.600861 -114.933518 91 25254ft 443kts
26-Mar-20 09:36 33.596749 -114.785314 91 25253ft 446kts
26-Mar-20 09:37 33.572532 -114.639761 102 25253ft 447kts
26-Mar-20 09:38 33.544186 -114.494394 102 25253ft 448kts
26-Mar-20 09:39 33.515783 -114.349653 103 25253ft 448kts
26-Mar-20 09:40 33.487625 -114.207087 103 25237ft 436kts
26-Mar-20 09:41 33.460930 -114.072820 103 25253ft 405kts
26-Mar-20 09:42 33.434689 -113.942042 103 24383ft 403kts
26-Mar-20 09:43 33.409073 -113.814534 103 24225ft 385kts
26-Mar-20 09:44 33.383899 -113.689914 103 23853ft 395kts
26-Mar-20 09:45 33.357714 -113.561014 103 23072ft 396kts
26-Mar-20 09:46 33.332830 -113.435229 101 22118ft 382kts
26-Mar-20 09:47 33.311635 -113.312377 101 21431ft 377kts
26-Mar-20 09:48 33.291428 -113.188773 99 20436ft 380kts
26-Mar-20 09:49 33.274593 -113.069236 94 19226ft 349kts
26-Mar-20 09:50 33.277193 -112.956405 88 18904ft 344kts
26-Mar-20 09:51 33.280040 -112.840703 88 18416ft 348kts
26-Mar-20 09:52 33.289392 -112.727338 83 17886ft 328kts
26-Mar-20 09:53 33.299197 -112.622792 83 17028ft 317kts
26-Mar-20 09:54 33.308967 -112.517502 83 15832ft 315kts
26-Mar-20 09:55 33.318469 -112.414156 83 14244ft 309kts
26-Mar-20 09:56 33.327632 -112.313884 83 12353ft 294kts
26-Mar-20 09:57 33.335954 -112.222377 83 11382ft 273kts
26-Mar-20 09:58 33.344049 -112.132641 83 9827ft 251kts
26-Mar-20 09:59 33.347136 -112.053639 90 8866ft 235kts
26-Mar-20 10:00 33.346132 -111.974373 90 7876ft 239kts
26-Mar-20 10:01 33.352160 -111.897981 88 7252ft 228kts
26-Mar-20 10:02 33.353741 -111.820130 88 6482ft 232kts
26-Mar-20 10:03 33.374517 -111.756542 6 4934ft 226kts
26-Mar-20 10:04 33.429485 -111.771043 289 4226ft 202kts
26-Mar-20 10:05 33.428645 -111.843745 269 3735ft 220kts
26-Mar-20 10:06 33.428729 -111.902434 270 2802ft 152kts
26-Mar-20 10:07 33.428787 -111.943122 270 2090ft 93kts
26-Mar-20 10:08 33.428821 -111.974604 270 1616ft 94kts
26-Mar-20 10:09 33.428847 -112.005391 270 1139ft 83kts
26-Mar-20 10:10 33.428459 -112.021334 237 1138ft 23kts
26-Mar-20 10:11 33.427114 -112.024123 135 1138ft 5kts
26-Mar-20 10:12 33.426585 -112.023756 184 1138ft 0kts

Navigation Log

Ident Type
Flight plan parsing failed, navigation log unavailable